createdAt,value
2019-02-06T00:00:41.482Z,100.00
2019-02-06T00:03:12.001Z,100.00
2019-02-06T00:05:40.862Z,100.00
2019-02-06T00:08:09.445Z,100.00
2019-02-06T00:10:37.871Z,100.00
2019-02-06T00:13:08.868Z,100.00
2019-02-06T00:15:37.530Z,100.00
2019-02-06T00:18:07.018Z,100.00
2019-02-06T00:20:35.833Z,100.00
2019-02-06T00:23:04.433Z,100.00
2019-02-06T00:25:32.916Z,100.00
2019-02-06T00:28:01.376Z,100.00
2019-02-06T00:30:29.854Z,100.00
2019-02-06T00:32:58.295Z,100.00
2019-02-06T00:35:27.111Z,100.00
2019-02-06T00:37:55.532Z,100.00
2019-02-06T00:40:24.053Z,100.00
2019-02-06T00:42:52.496Z,100.00
2019-02-06T00:45:20.921Z,100.00
2019-02-06T00:47:49.441Z,100.00
2019-02-06T00:50:18.369Z,100.00
2019-02-06T00:52:46.808Z,100.00
2019-02-06T00:55:16.109Z,100.00
2019-02-06T00:57:44.528Z,100.00
2019-02-06T01:00:20.832Z,100.00
2019-02-06T01:02:50.707Z,100.00
2019-02-06T01:05:19.522Z,100.00
2019-02-06T01:07:48.019Z,100.00
2019-02-06T01:10:19.143Z,100.00
2019-02-06T01:12:47.635Z,100.00
2019-02-06T01:15:16.254Z,100.00
2019-02-06T01:17:44.684Z,100.00
2019-02-06T01:20:15.972Z,100.00
2019-02-06T01:22:44.486Z,100.00
2019-02-06T01:25:16.126Z,100.00
2019-02-06T01:27:44.830Z,100.00
2019-02-06T01:30:17.346Z,100.00
2019-02-06T01:32:45.791Z,100.00
2019-02-06T01:35:14.833Z,100.00
2019-02-06T01:37:43.349Z,100.00
2019-02-06T01:40:15.030Z,100.00
2019-02-06T01:42:43.590Z,100.00
2019-02-06T01:45:15.633Z,100.00
2019-02-06T01:47:44.194Z,100.00
2019-02-06T01:50:15.460Z,100.00
2019-02-06T01:52:44.062Z,100.00
2019-02-06T01:55:14.752Z,100.00
2019-02-06T01:57:43.265Z,100.00
2019-02-06T02:00:23.717Z,100.00
2019-02-06T02:02:52.391Z,100.00
2019-02-06T02:05:22.462Z,100.00
2019-02-06T02:07:51.640Z,100.00
2019-02-06T02:10:21.159Z,100.00
2019-02-06T02:12:50.218Z,100.00
2019-02-06T02:15:19.589Z,100.00
2019-02-06T02:17:48.235Z,100.00
2019-02-06T02:20:22.028Z,100.00
2019-02-06T02:22:50.920Z,100.00
2019-02-06T02:25:19.545Z,100.00
2019-02-06T02:27:48.079Z,100.00
2019-02-06T02:30:32.340Z,100.00
2019-02-06T02:33:00.758Z,100.00
2019-02-06T02:35:29.195Z,100.00
2019-02-06T02:37:57.647Z,100.00
2019-02-06T02:40:26.154Z,100.00
2019-02-06T02:42:55.089Z,100.00
2019-02-06T02:45:23.572Z,100.00
2019-02-06T02:47:52.097Z,100.00
2019-02-06T02:50:20.505Z,100.00
2019-02-06T02:52:49.121Z,100.00
2019-02-06T02:55:17.540Z,100.00
2019-02-06T02:57:45.960Z,100.00
2019-02-06T03:00:21.019Z,100.00
2019-02-06T03:02:54.465Z,100.00
2019-02-06T03:05:24.579Z,100.00
2019-02-06T03:07:53.032Z,100.00
2019-02-06T03:10:21.439Z,100.00
2019-02-06T03:12:49.955Z,100.00
2019-02-06T03:15:18.779Z,100.00
2019-02-06T03:17:47.236Z,100.00
2019-02-06T03:20:15.851Z,100.00
2019-02-06T03:22:44.358Z,100.00
2019-02-06T03:25:14.419Z,100.00
2019-02-06T03:27:43.105Z,100.00
2019-02-06T03:30:19.706Z,100.00
2019-02-06T03:32:48.354Z,100.00
2019-02-06T03:35:18.336Z,100.00
2019-02-06T03:37:47.668Z,100.00
2019-02-06T03:40:18.350Z,100.00
2019-02-06T03:42:46.854Z,100.00
2019-02-06T03:45:16.160Z,100.00
2019-02-06T03:47:44.682Z,100.00
2019-02-06T03:50:16.427Z,100.00
2019-02-06T03:52:44.879Z,100.00
2019-02-06T03:55:13.962Z,100.00
2019-02-06T03:57:42.448Z,100.00
2019-02-06T04:00:17.012Z,100.00
2019-02-06T04:02:46.059Z,100.00
2019-02-06T04:05:14.870Z,100.00
2019-02-06T04:07:43.391Z,100.00
2019-02-06T04:10:19.201Z,100.00
2019-02-06T04:12:47.647Z,100.00
2019-02-06T04:15:18.019Z,100.00
2019-02-06T04:17:46.527Z,100.00
2019-02-06T04:20:17.321Z,100.00
2019-02-06T04:22:45.828Z,100.00
2019-02-06T04:25:15.128Z,100.00
2019-02-06T04:27:43.600Z,100.00
2019-02-06T04:30:17.263Z,100.00
2019-02-06T04:32:45.877Z,100.00
2019-02-06T04:35:16.185Z,100.00
2019-02-06T04:37:44.834Z,100.00
2019-02-06T04:40:16.367Z,100.00
2019-02-06T04:42:44.833Z,100.00
2019-02-06T04:45:18.231Z,100.00
2019-02-06T04:47:46.907Z,100.00
2019-02-06T04:50:17.453Z,100.00
2019-02-06T04:52:45.933Z,100.00
2019-02-06T04:55:18.203Z,100.00
2019-02-06T04:57:47.033Z,100.00
2019-02-06T05:00:28.479Z,100.00
2019-02-06T05:02:57.039Z,100.00
2019-02-06T05:05:25.492Z,100.00
2019-02-06T05:07:53.973Z,100.00
2019-02-06T05:10:22.451Z,100.00
2019-02-06T05:12:51.045Z,100.00
2019-02-06T05:15:19.671Z,100.00
2019-02-06T05:17:48.196Z,100.00
2019-02-06T05:20:31.626Z,100.00
2019-02-06T05:23:00.132Z,100.00
2019-02-06T05:25:29.124Z,100.00
2019-02-06T05:27:57.676Z,100.00
2019-02-06T05:30:26.222Z,100.00
2019-02-06T05:32:54.631Z,100.00
2019-02-06T05:35:25.710Z,100.00
2019-02-06T05:37:54.177Z,100.00
2019-02-06T05:40:23.435Z,100.00
2019-02-06T05:42:52.927Z,100.00
2019-02-06T05:45:21.530Z,100.00
2019-02-06T05:47:49.981Z,100.00
2019-02-06T05:50:19.750Z,100.00
2019-02-06T05:52:48.265Z,100.00
2019-02-06T05:55:20.027Z,100.00
2019-02-06T05:57:48.837Z,100.00
2019-02-06T06:00:22.017Z,100.00
2019-02-06T06:02:50.507Z,100.00
2019-02-06T06:05:18.955Z,100.00
2019-02-06T06:07:47.440Z,100.00
2019-02-06T06:10:18.121Z,100.00
2019-02-06T06:12:46.913Z,100.00
2019-02-06T06:15:20.205Z,100.00
2019-02-06T06:17:48.821Z,100.00
2019-02-06T06:20:21.299Z,100.00
2019-02-06T06:22:50.321Z,100.00
2019-02-06T06:25:21.044Z,100.00
2019-02-06T06:27:49.900Z,100.00
2019-02-06T06:30:20.247Z,100.00
2019-02-06T06:32:48.976Z,100.00
2019-02-06T06:35:17.493Z,100.00
2019-02-06T06:37:57.568Z,100.00
2019-02-06T06:40:19.086Z,100.00
2019-02-06T06:42:48.239Z,100.00
2019-02-06T06:45:21.936Z,100.00
2019-02-06T06:47:50.945Z,100.00
2019-02-06T06:50:21.411Z,100.00
2019-02-06T06:52:49.864Z,100.00
2019-02-06T06:55:18.402Z,100.00
2019-02-06T06:57:46.900Z,100.00
2019-02-06T07:00:24.292Z,100.00
2019-02-06T07:02:52.982Z,100.00
2019-02-06T07:05:21.353Z,100.00
2019-02-06T07:07:50.865Z,100.00
2019-02-06T07:10:20.117Z,100.00
2019-02-06T07:12:48.604Z,100.00
2019-02-06T07:15:28.741Z,100.00
2019-02-06T07:17:57.232Z,100.00
2019-02-06T07:20:25.788Z,100.00
2019-02-06T07:22:54.287Z,100.00
2019-02-06T07:25:22.695Z,100.00
2019-02-06T07:27:51.163Z,100.00
2019-02-06T07:30:25.793Z,100.00
2019-02-06T07:32:54.825Z,100.00
2019-02-06T07:35:23.352Z,100.00
2019-02-06T07:37:51.807Z,100.00
2019-02-06T07:40:20.444Z,100.00
2019-02-06T07:42:49.365Z,100.00
2019-02-06T07:45:19.547Z,100.00
2019-02-06T07:47:48.125Z,100.00
2019-02-06T07:50:25.288Z,100.00
2019-02-06T07:52:54.086Z,100.00
2019-02-06T07:55:22.508Z,100.00
2019-02-06T07:57:50.932Z,100.00
2019-02-06T08:00:19.417Z,100.00
2019-02-06T08:02:48.134Z,100.00
2019-02-06T08:05:19.262Z,100.00
2019-02-06T08:07:48.855Z,100.00
2019-02-06T08:10:20.239Z,100.00
2019-02-06T08:12:48.866Z,100.00
2019-02-06T08:15:19.446Z,100.00
2019-02-06T08:17:47.961Z,100.00
2019-02-06T08:20:19.451Z,98.92
2019-02-06T08:22:47.966Z,98.16
2019-02-06T08:25:18.550Z,97.67
2019-02-06T08:27:47.856Z,96.52
2019-02-06T08:30:20.164Z,95.67
2019-02-06T08:32:49.058Z,94.65
2019-02-06T08:35:17.582Z,93.49
2019-02-06T08:37:46.270Z,94.48
2019-02-06T08:40:18.585Z,91.42
2019-02-06T08:42:47.192Z,90.11
2019-02-06T08:45:17.270Z,89.14
2019-02-06T08:47:46.085Z,89.21
2019-02-06T08:50:19.781Z,88.35
2019-02-06T08:52:48.959Z,86.72
2019-02-06T08:55:21.030Z,86.82
2019-02-06T08:57:49.590Z,86.06
2019-02-06T09:00:24.038Z,86.76
2019-02-06T09:02:52.661Z,85.83
2019-02-06T09:05:21.088Z,83.28
2019-02-06T09:07:50.039Z,82.36
2019-02-06T09:10:23.758Z,84.17
2019-02-06T09:12:53.639Z,84.95
2019-02-06T09:15:22.327Z,84.34
2019-02-06T09:17:50.830Z,87.02
2019-02-06T09:20:24.977Z,87.18
2019-02-06T09:22:57.020Z,87.95
2019-02-06T09:25:27.002Z,90.07
2019-02-06T09:27:56.300Z,89.53
2019-02-06T09:30:27.259Z,89.97
2019-02-06T09:32:56.629Z,90.84
2019-02-06T09:35:25.636Z,91.50
2019-02-06T09:37:54.731Z,92.01
2019-02-06T09:40:25.827Z,90.87
2019-02-06T09:42:54.475Z,92.24
2019-02-06T09:45:23.069Z,92.51
2019-02-06T09:47:51.712Z,91.87
2019-02-06T09:50:23.730Z,91.61
2019-02-06T09:52:52.247Z,90.90
2019-02-06T09:55:20.761Z,91.86
2019-02-06T09:57:49.203Z,91.44
2019-02-06T10:00:26.125Z,91.29
2019-02-06T10:02:54.647Z,91.32
2019-02-06T10:05:23.643Z,89.45
2019-02-06T10:07:52.136Z,89.45
2019-02-06T10:10:23.338Z,89.57
2019-02-06T10:12:51.928Z,90.31
2019-02-06T10:15:29.309Z,90.62
2019-02-06T10:17:58.568Z,90.84
2019-02-06T10:20:35.917Z,90.54
2019-02-06T10:23:04.824Z,91.56
2019-02-06T10:25:33.396Z,89.86
2019-02-06T10:28:01.984Z,91.75
2019-02-06T10:30:36.091Z,91.18
2019-02-06T10:33:04.778Z,90.63
2019-02-06T10:35:33.266Z,90.64
2019-02-06T10:38:01.821Z,91.75
2019-02-06T10:40:30.381Z,91.32
2019-02-06T10:42:58.883Z,91.09
2019-02-06T10:45:27.433Z,89.91
2019-02-06T10:47:56.182Z,90.42
2019-02-06T10:50:30.199Z,90.27
2019-02-06T10:52:58.780Z,90.41
2019-02-06T10:55:27.290Z,90.82
2019-02-06T10:57:55.871Z,90.15
2019-02-06T11:00:29.910Z,88.14
2019-02-06T11:02:58.745Z,89.85
2019-02-06T11:05:27.343Z,90.47
2019-02-06T11:07:55.787Z,90.90
2019-02-06T11:10:26.455Z,90.55
2019-02-06T11:12:54.984Z,90.68
2019-02-06T11:15:24.135Z,90.66
2019-02-06T11:17:53.029Z,90.70
2019-02-06T11:20:30.132Z,92.09
2019-02-06T11:22:58.557Z,91.74
2019-02-06T11:25:28.637Z,92.07
2019-02-06T11:27:57.109Z,91.60
2019-02-06T11:30:31.366Z,91.72
2019-02-06T11:32:59.916Z,91.75
2019-02-06T11:35:28.410Z,92.01
2019-02-06T11:37:57.250Z,92.42
2019-02-06T11:40:26.236Z,90.91
2019-02-06T11:42:54.897Z,91.39
2019-02-06T11:45:28.948Z,89.97
2019-02-06T11:47:57.538Z,91.42
2019-02-06T11:50:28.064Z,90.45
2019-02-06T11:52:56.534Z,91.07
2019-02-06T11:55:27.698Z,91.73
2019-02-06T11:57:56.329Z,87.89
2019-02-06T12:00:36.096Z,88.55
2019-02-06T12:03:05.059Z,84.76
2019-02-06T12:05:33.550Z,83.01
2019-02-06T12:08:02.141Z,81.90
2019-02-06T12:10:30.639Z,79.54
2019-02-06T12:12:59.164Z,78.21
2019-02-06T12:15:27.817Z,78.56
2019-02-06T12:17:56.451Z,76.75
2019-02-06T12:20:25.877Z,74.16
2019-02-06T12:22:54.517Z,74.84
2019-02-06T12:25:23.017Z,72.57
2019-02-06T12:27:54.042Z,73.44
2019-02-06T12:30:41.509Z,72.69
2019-02-06T12:33:10.127Z,71.74
2019-02-06T12:35:38.615Z,71.48
2019-02-06T12:38:07.330Z,71.34
2019-02-06T12:40:36.408Z,69.66
2019-02-06T12:43:07.174Z,69.42
2019-02-06T12:45:37.304Z,72.91
2019-02-06T12:48:07.018Z,70.90
2019-02-06T12:50:35.943Z,70.80
2019-02-06T12:53:04.802Z,69.88
2019-02-06T12:55:42.823Z,70.71
2019-02-06T12:58:11.409Z,70.32
2019-02-06T13:00:43.006Z,70.28
2019-02-06T13:03:11.949Z,72.08
2019-02-06T13:05:40.575Z,70.97
2019-02-06T13:08:09.142Z,71.21
2019-02-06T13:10:37.702Z,72.92
2019-02-06T13:13:07.641Z,69.73
2019-02-06T13:15:36.482Z,70.54
2019-02-06T13:18:05.590Z,71.23
2019-02-06T13:20:36.647Z,71.48
2019-02-06T13:23:07.312Z,70.35
2019-02-06T13:25:35.740Z,72.35
2019-02-06T13:28:05.096Z,73.25
2019-02-06T13:30:36.437Z,69.59
2019-02-06T13:33:07.023Z,71.63
2019-02-06T13:35:35.985Z,70.57
2019-02-06T13:38:04.531Z,71.20
2019-02-06T13:40:44.778Z,69.77
2019-02-06T13:43:03.896Z,72.35
2019-02-06T13:45:37.991Z,70.81
2019-02-06T13:48:07.007Z,71.13
2019-02-06T13:50:35.770Z,72.08
2019-02-06T13:53:04.575Z,70.63
2019-02-06T13:55:32.996Z,69.13
2019-02-06T13:58:01.518Z,70.87
2019-02-06T14:00:35.860Z,70.71
2019-02-06T14:03:06.033Z,70.70
2019-02-06T14:05:34.852Z,70.20
2019-02-06T14:08:11.978Z,71.60
2019-02-06T14:10:40.556Z,71.38
2019-02-06T14:13:08.997Z,71.52
2019-02-06T14:15:40.475Z,70.01
2019-02-06T14:18:09.475Z,72.80
2019-02-06T14:20:38.437Z,72.87
2019-02-06T14:23:16.873Z,69.78
2019-02-06T14:25:54.449Z,71.34
2019-02-06T14:28:31.775Z,72.80
2019-02-06T14:31:18.276Z,72.61
2019-02-06T14:33:52.644Z,71.58
2019-02-06T14:36:26.928Z,72.87
2019-02-06T14:39:14.930Z,73.21
2019-02-06T14:41:52.724Z,70.68
2019-02-06T14:44:57.495Z,72.59
2019-02-06T14:47:35.490Z,71.49
2019-02-06T14:50:23.403Z,71.72
2019-02-06T14:53:28.078Z,72.30
2019-02-06T14:56:21.871Z,71.67
2019-02-06T14:59:02.421Z,71.25
2019-02-06T15:01:39.903Z,71.11
2019-02-06T15:04:40.440Z,70.52
2019-02-06T15:07:14.842Z,70.92
2019-02-06T15:10:10.053Z,71.08
2019-02-06T15:12:47.981Z,71.83
2019-02-06T15:15:25.158Z,72.09
2019-02-06T15:18:08.402Z,71.21
2019-02-06T15:20:46.095Z,70.29
2019-02-06T15:23:37.095Z,71.08
2019-02-06T15:26:14.649Z,71.38
2019-02-06T15:28:57.000Z,72.90
2019-02-06T15:31:37.462Z,71.69
2019-02-06T15:34:31.857Z,72.04
2019-02-06T15:37:27.378Z,71.07
2019-02-06T15:40:18.159Z,70.40
2019-02-06T15:42:58.541Z,70.39
2019-02-06T15:45:39.031Z,70.75
2019-02-06T15:48:19.419Z,71.28
2019-02-06T15:51:19.505Z,70.65
2019-02-06T15:53:56.942Z,70.64
2019-02-06T15:56:34.223Z,71.14
2019-02-06T15:59:20.763Z,70.83
2019-02-06T16:02:13.431Z,71.69
2019-02-06T16:05:02.768Z,72.25
2019-02-06T16:07:49.023Z,72.00
2019-02-06T16:10:35.787Z,70.73
2019-02-06T16:13:13.073Z,70.59
2019-02-06T16:15:53.569Z,72.26
2019-02-06T16:18:37.099Z,73.02
2019-02-06T16:21:26.454Z,72.26
2019-02-06T16:24:16.113Z,70.71
2019-02-06T16:26:59.546Z,72.14
2019-02-06T16:29:40.641Z,72.44
2019-02-06T16:32:35.819Z,71.29
2019-02-06T16:35:13.458Z,72.75
2019-02-06T16:37:50.759Z,71.56
2019-02-06T16:40:34.215Z,71.55
2019-02-06T16:43:05.718Z,71.32
2019-02-06T16:45:46.287Z,71.21
2019-02-06T16:48:20.482Z,72.13
2019-02-06T16:51:00.797Z,71.77
2019-02-06T16:54:04.067Z,71.29
2019-02-06T16:56:52.903Z,71.83
2019-02-06T16:59:46.960Z,70.77
2019-02-06T17:02:21.493Z,70.59
2019-02-06T17:05:09.569Z,70.01
2019-02-06T17:07:49.701Z,70.13
2019-02-06T17:10:32.846Z,70.28
2019-02-06T17:13:07.583Z,70.06
2019-02-06T17:15:45.180Z,69.40
2019-02-06T17:18:19.397Z,71.28
2019-02-06T17:21:12.025Z,70.01
2019-02-06T17:24:03.168Z,70.29
2019-02-06T17:26:37.422Z,69.76
2019-02-06T17:29:31.410Z,70.44
2019-02-06T17:32:18.249Z,69.19
2019-02-06T17:34:52.753Z,69.45
2019-02-06T17:37:33.255Z,68.74
2019-02-06T17:40:19.141Z,68.75
2019-02-06T17:43:05.948Z,68.95
2019-02-06T17:46:03.105Z,69.48
2019-02-06T17:48:43.944Z,69.10
2019-02-06T17:51:15.513Z,68.96
2019-02-06T17:53:49.670Z,69.37
2019-02-06T17:56:19.423Z,69.17
2019-02-06T17:58:47.940Z,69.83
2019-02-06T18:01:19.596Z,69.53
2019-02-06T18:03:49.623Z,70.46
2019-02-06T18:06:18.164Z,70.37
2019-02-06T18:08:56.479Z,71.07
2019-02-06T18:11:16.985Z,71.29
2019-02-06T18:13:45.780Z,71.28
2019-02-06T18:16:21.056Z,71.54
2019-02-06T18:18:44.668Z,70.88
2019-02-06T18:21:13.240Z,70.98
2019-02-06T18:23:41.749Z,69.87
2019-02-06T18:26:10.395Z,70.69
2019-02-06T18:28:39.359Z,71.35
2019-02-06T18:31:08.432Z,70.95
2019-02-06T18:33:36.893Z,71.22
2019-02-06T18:36:06.814Z,71.33
2019-02-06T18:38:46.354Z,71.74
2019-02-06T18:41:07.096Z,70.28
2019-02-06T18:43:35.704Z,70.88
2019-02-06T18:46:04.705Z,70.38
2019-02-06T18:48:33.801Z,70.45
2019-02-06T18:51:03.428Z,70.14
2019-02-06T18:53:32.070Z,70.54
2019-02-06T18:56:00.605Z,70.85
2019-02-06T18:58:29.193Z,71.76
2019-02-06T19:00:58.005Z,71.56
2019-02-06T19:03:35.364Z,70.50
2019-02-06T19:06:04.265Z,69.60
2019-02-06T19:08:33.099Z,68.91
2019-02-06T19:11:01.676Z,67.54
2019-02-06T19:13:30.172Z,68.00
2019-02-06T19:15:58.758Z,68.07
2019-02-06T19:18:37.193Z,67.80
2019-02-06T19:21:05.278Z,67.44
2019-02-06T19:23:34.071Z,68.07
2019-02-06T19:26:02.590Z,68.16
2019-02-06T19:28:32.591Z,66.81
2019-02-06T19:31:01.073Z,66.59
2019-02-06T19:33:29.543Z,66.94
2019-02-06T19:35:58.051Z,67.97
2019-02-06T19:38:26.507Z,67.25
2019-02-06T19:40:55.015Z,66.92
2019-02-06T19:43:23.580Z,66.50
2019-02-06T19:45:52.033Z,67.85
2019-02-06T19:48:23.398Z,67.09
2019-02-06T19:50:51.830Z,67.22
2019-02-06T19:53:21.966Z,68.20
2019-02-06T19:55:50.474Z,67.33
2019-02-06T19:58:21.754Z,66.14
2019-02-06T20:00:50.197Z,66.21
2019-02-06T20:03:18.725Z,67.07
2019-02-06T20:05:47.329Z,67.27
2019-02-06T20:08:15.808Z,66.84
2019-02-06T20:10:47.252Z,65.55
2019-02-06T20:13:15.728Z,65.30
2019-02-06T20:15:44.218Z,65.96
2019-02-06T20:18:13.363Z,65.31
2019-02-06T20:20:41.988Z,64.46
2019-02-06T20:23:10.531Z,64.41
2019-02-06T20:25:39.076Z,65.94
2019-02-06T20:28:07.646Z,66.45
2019-02-06T20:30:36.159Z,65.76
2019-02-06T20:33:05.181Z,66.08
2019-02-06T20:35:34.534Z,66.22
2019-02-06T20:38:03.117Z,66.23
2019-02-06T20:40:37.374Z,65.80
2019-02-06T20:43:05.811Z,66.30
2019-02-06T20:45:34.265Z,66.37
2019-02-06T20:48:02.855Z,65.42
2019-02-06T20:50:37.891Z,66.83
2019-02-06T20:53:06.914Z,66.54
2019-02-06T20:55:36.213Z,66.91
2019-02-06T20:58:05.179Z,66.72
2019-02-06T21:00:42.590Z,65.38
2019-02-06T21:03:11.259Z,65.72
2019-02-06T21:05:40.290Z,64.78
2019-02-06T21:08:08.921Z,65.48
2019-02-06T21:10:37.533Z,65.49
2019-02-06T21:13:07.331Z,65.97
2019-02-06T21:15:35.848Z,65.12
2019-02-06T21:18:04.817Z,66.09
2019-02-06T21:20:33.388Z,65.27
2019-02-06T21:23:02.299Z,65.17
2019-02-06T21:25:30.962Z,64.41
2019-02-06T21:27:59.510Z,65.70
2019-02-06T21:30:33.948Z,66.83
2019-02-06T21:33:02.381Z,65.30
2019-02-06T21:35:30.914Z,64.86
2019-02-06T21:37:59.797Z,65.49
2019-02-06T21:40:36.306Z,64.73
2019-02-06T21:43:06.843Z,64.50
2019-02-06T21:45:36.118Z,66.03
2019-02-06T21:48:05.732Z,66.64
2019-02-06T21:50:34.184Z,65.62
2019-02-06T21:53:02.680Z,66.27
2019-02-06T21:55:31.381Z,65.17
2019-02-06T21:57:59.792Z,66.11
2019-02-06T22:00:36.532Z,65.54
2019-02-06T22:03:06.162Z,64.55
2019-02-06T22:05:35.300Z,65.10
2019-02-06T22:08:04.138Z,64.61
2019-02-06T22:10:32.747Z,64.92
2019-02-06T22:13:01.211Z,66.04
2019-02-06T22:15:31.458Z,65.91
2019-02-06T22:17:59.961Z,65.11
2019-02-06T22:20:28.973Z,65.05
2019-02-06T22:22:57.525Z,64.88
2019-02-06T22:25:25.999Z,64.68
2019-02-06T22:27:54.482Z,64.96
2019-02-06T22:30:28.876Z,65.79
2019-02-06T22:32:57.768Z,66.78
2019-02-06T22:35:26.522Z,66.73
2019-02-06T22:37:55.045Z,66.16
2019-02-06T22:40:25.348Z,66.93
2019-02-06T22:42:54.328Z,64.39
2019-02-06T22:45:25.414Z,65.46
2019-02-06T22:47:54.030Z,65.89
2019-02-06T22:50:25.688Z,65.57
2019-02-06T22:52:54.239Z,65.57
2019-02-06T22:55:22.739Z,65.58
2019-02-06T22:57:51.310Z,65.03
2019-02-06T23:00:51.357Z,66.21
2019-02-06T23:03:32.083Z,66.28
2019-02-06T23:06:00.664Z,65.33
2019-02-06T23:08:29.248Z,66.20
2019-02-06T23:10:58.316Z,67.02
2019-02-06T23:13:26.722Z,67.16
2019-02-06T23:15:55.253Z,66.09
2019-02-06T23:18:23.747Z,65.73
2019-02-06T23:20:52.175Z,66.51
2019-02-06T23:23:20.719Z,66.11
2019-02-06T23:25:49.127Z,67.20
2019-02-06T23:28:17.585Z,67.59
2019-02-06T23:30:46.066Z,68.31
2019-02-06T23:33:14.488Z,68.42
2019-02-06T23:35:42.930Z,68.59
2019-02-06T23:38:11.611Z,67.55
2019-02-06T23:40:40.212Z,68.56
2019-02-06T23:43:08.681Z,68.20
2019-02-06T23:45:37.198Z,68.05
2019-02-06T23:48:06.255Z,68.42
2019-02-06T23:50:34.671Z,67.80
2019-02-06T23:53:03.150Z,67.08
2019-02-06T23:55:31.631Z,67.38
2019-02-06T23:58:00.433Z,66.44
